Wausau, WI (54401)

4:35 AM CDT on August 30, 2015 (GMT -0500)
Thomas Jefferson Elementary, Across the Street | | Change Station
CLOSE
Current Station
Personal Weather Station
Location: Wausau, WI
Elevation: 1276 ft
Nearby Weather Stations

Elev 1276 ft 44.98 °N, 89.64 °W | Updated 3 minutes ago

Fog
Fog
52.2 °F
Feels Like 52.2 °F
N
0.0
Wind Variable Wind from East

Today
High -- | Low -- °F
--% Chance of Precip.
Yesterday
High -- | Low -- °F
Precip. -- in
6:18 AM 7:39 PM
Waxing Gibbous, 99% visible
Pressure 30.06 in
Visibility 0.2 miles
Clouds
Dew Point 51 °F
Humidity 96%
Rainfall 0.00 in
Snow Depth Not available.
UV Not available.
Pollen 8.90 out of 12
Air Quality Not available.
Flu Activity Not available.
METAR KAUW 300854Z AUTO 00000KT 1/4SM FG VV002 12/11 A3005 RMK AO2 SLP178 T01170111 55001
Pressure 30.06 in
Visibility 0.2 miles
Clouds
Dew Point 51 °F
Humidity 96%
Rainfall 0.00 in
Snow Depth Not available.
UV Not available.
Pollen 8.90 out of 12
Air Quality Not available.
Flu Activity Not available.
METAR KAUW 300854Z AUTO 00000KT 1/4SM FG VV002 12/11 A3005 RMK AO2 SLP178 T01170111 55001

10-Day Weather Forecast

×

Almanac

Astronomy

Aug. 30, 2015 Rise Set
Actual Time
Civil Twilight
Nautical Twilight
Astronomical Twilight
Moon
Length of Visible Light
Length of Day
Tomorrow will be .
, % of the Moon is Illuminated

Today's Extremes

State Highs State Lows

Community

WunderPhotos

Upload Photos

1,850,919 photos uploaded!

WunderBlogs® & News

Nearby

Air Quality

  Air Quality AQ Index Pollutant
Not available.

Snow Depth

Station Depth Elevation

Earthquake Activity

City Distance Mag. Time & Date
Minimum magnitude displayed is 2.5.

Coastal Water Temperatures

Place Temperature

Stations

Nearby Weather Stations

Station Location Temp. Windchill Dew Point Humidity Wind Precip. Elev Updated Type